Time;durP1;ratioP1;P1;durP2;ratioP2;P2;SDS_P1;SDS_P2;PMS_P1;PMS_P2;Temp;Humidity;BMP_temperature;BMP_pressure;BME280_temperature;BME280_humidity;BME280_pressure;Samples;Min_cycle;Max_cycle;Signal;HPM_P1;HPM_P2
2022/01/13 00:00:30;;;;;;;16.42;3.35;;;;;;;;;;4996251;28;20096;-31
2022/01/13 00:02:56;;;;;;;16.05;4.22;;;;;;;;;;4996175;28;20046;-32
2022/01/13 00:05:29;;;;;;;13.35;3.90;;;;;;;;;;4994829;28;20050;-32
2022/01/13 00:07:57;;;;;;;20.40;4.80;;;;;;;;;;4996114;28;20109;-32
2022/01/13 00:10:24;;;;;;;13.35;3.63;;;;;;;;;;4995847;28;20202;-34
2022/01/13 00:12:57;;;;;;;16.15;4.57;;;;;;;;;;4995658;28;20451;-31
2022/01/13 00:18:29;;;;;;;18.95;4.45;;;;;;;;;;4968062;28;20109;-33
2022/01/13 00:21:13;;;;;;;12.88;3.80;;;;;;;;;;4996017;28;20026;-30
2022/01/13 00:26:26;;;;;;;11.40;3.92;;;;;;;;;;4995972;28;20108;-32
2022/01/13 00:28:53;;;;;;;16.08;3.63;;;;;;;;;;4995851;28;20038;-35
2022/01/13 00:31:30;;;;;;;14.20;4.97;;;;;;;;;;4995816;28;20027;-31
2022/01/13 00:33:58;;;;;;;19.55;3.80;;;;;;;;;;4994643;28;20112;-33
2022/01/13 00:36:31;;;;;;;15.48;4.93;;;;;;;;;;4995457;28;20113;-31
2022/01/13 00:38:58;;;;;;;17.67;3.55;;;;;;;;;;4996021;28;20161;-30
2022/01/13 00:41:27;;;;;;;11.93;5.00;;;;;;;;;;4995638;28;20117;-32
2022/01/13 00:43:55;;;;;;;17.85;4.47;;;;;;;;;;4995242;28;20416;-31
2022/01/13 00:46:23;;;;;;;17.67;5.07;;;;;;;;;;4995334;28;20018;-32
2022/01/13 00:48:51;;;;;;;16.70;3.63;;;;;;;;;;4995357;28;20438;-32
2022/01/13 00:51:17;;;;;;;17.85;3.50;;;;;;;;;;4995228;28;20027;-32
2022/01/13 00:53:44;;;;;;;16.10;4.50;;;;;;;;;;4995192;28;20050;-33
2022/01/13 00:56:10;;;;;;;13.95;4.03;;;;;;;;;;4995998;28;20030;-32
2022/01/13 00:58:37;;;;;;;17.33;3.35;;;;;;;;;;4995730;28;20045;-32
2022/01/13 01:01:05;;;;;;;12.73;3.88;;;;;;;;;;4995178;28;20369;-34
2022/01/13 01:03:31;;;;;;;16.70;3.47;;;;;;;;;;4995257;28;20092;-30
2022/01/13 01:06:00;;;;;;;13.65;4.35;;;;;;;;;;4993931;28;20069;-31
2022/01/13 01:08:27;;;;;;;12.20;3.88;;;;;;;;;;4995100;28;20050;-31
2022/01/13 01:10:54;;;;;;;10.68;3.38;;;;;;;;;;4995370;28;20038;-33
2022/01/13 01:13:26;;;;;;;18.60;4.05;;;;;;;;;;4994990;28;20030;-32
2022/01/13 01:15:56;;;;;;;18.45;3.85;;;;;;;;;;4995643;28;20034;-32
2022/01/13 01:21:05;;;;;;;13.82;3.15;;;;;;;;;;4995011;28;20038;-31
2022/01/13 01:23:34;;;;;;;;;;;;;;;;;;4999433;28;20034;-31
2022/01/13 01:26:08;;;;;;;8.13;3.40;;;;;;;;;;4998922;28;19910;-31
2022/01/13 01:28:44;;;;;;;19.15;3.72;;;;;;;;;;4999456;28;20022;-30
2022/01/13 01:31:12;;;;;;;17.48;3.28;;;;;;;;;;4999954;28;20343;-32
2022/01/13 01:33:44;;;;;;;15.65;4.03;;;;;;;;;;4999014;28;20516;-32
2022/01/13 01:36:13;;;;;;;14.75;3.80;;;;;;;;;;4999096;28;20100;-32
2022/01/13 01:38:42;;;;;;;8.18;2.60;;;;;;;;;;4998772;28;20026;-31
2022/01/13 01:41:08;;;;;;;9.98;4.10;;;;;;;;;;4998610;28;20030;-32
2022/01/13 01:43:34;;;;;;;13.50;3.53;;;;;;;;;;4998722;28;20034;-33
2022/01/13 01:46:00;;;;;;;9.18;4.22;;;;;;;;;;4998535;28;20034;-32
2022/01/13 01:48:29;;;;;;;10.52;3.00;;;;;;;;;;4999039;28;20050;-31
2022/01/13 01:50:58;;;;;;;13.82;3.00;;;;;;;;;;4997891;28;20030;-31
2022/01/13 01:53:25;;;;;;;8.07;4.80;;;;;;;;;;4999158;28;20062;-32
2022/01/13 01:55:55;;;;;;;15.40;4.15;;;;;;;;;;4998927;28;20516;-31
2022/01/13 01:58:21;;;;;;;10.55;3.70;;;;;;;;;;4998455;28;20393;-31
2022/01/13 02:00:48;;;;;;;14.75;3.42;;;;;;;;;;4997314;28;20026;-32
2022/01/13 02:03:16;;;;;;;13.60;3.45;;;;;;;;;;4997153;28;20520;-31
2022/01/13 02:05:42;;;;;;;10.25;3.28;;;;;;;;;;4998107;28;20116;-32
2022/01/13 02:08:09;;;;;;;12.27;3.25;;;;;;;;;;4998729;28;20023;-30
2022/01/13 02:10:35;;;;;;;17.60;4.85;;;;;;;;;;4997205;28;20099;-31
2022/01/13 02:13:06;;;;;;;15.25;3.25;;;;;;;;;;4998024;28;20026;-32
2022/01/13 02:15:35;;;;;;;10.85;4.00;;;;;;;;;;4998027;28;20076;-31
2022/01/13 02:18:03;;;;;;;7.95;3.10;;;;;;;;;;4998256;28;20065;-31
2022/01/13 02:20:49;;;;;;;13.80;4.25;;;;;;;;;;4996994;28;20041;-32
2022/01/13 02:23:28;;;;;;;9.77;4.22;;;;;;;;;;4997616;28;20018;-31
2022/01/13 02:25:54;;;;;;;11.60;3.65;;;;;;;;;;4998090;28;20065;-33
2022/01/13 02:28:20;;;;;;;11.88;3.42;;;;;;;;;;4997744;28;20033;-32
2022/01/13 02:30:46;;;;;;;13.43;4.18;;;;;;;;;;4997806;28;20417;-30
2022/01/13 02:33:13;;;;;;;11.15;4.25;;;;;;;;;;4997410;28;20030;-32
2022/01/13 02:35:39;;;;;;;8.82;3.17;;;;;;;;;;4997542;28;20423;-31
2022/01/13 02:38:10;;;;;;;16.33;3.85;;;;;;;;;;4997799;28;20112;-31
2022/01/13 02:40:36;;;;;;;9.02;4.60;;;;;;;;;;4997822;28;20045;-31
2022/01/13 02:43:03;;;;;;;13.52;3.10;;;;;;;;;;4997521;28;20125;-32
2022/01/13 02:45:35;;;;;;;12.57;3.40;;;;;;;;;;4997315;28;20443;-31
2022/01/13 02:50:40;;;;;;;12.48;3.50;;;;;;;;;;4997393;28;20030;-32
2022/01/13 02:53:08;;;;;;;9.88;3.58;;;;;;;;;;4997480;28;20093;-31
2022/01/13 02:55:34;;;;;;;11.25;3.70;;;;;;;;;;4997528;28;20040;-32
2022/01/13 02:58:00;;;;;;;13.55;4.15;;;;;;;;;;4997205;28;20109;-34
2022/01/13 03:00:27;;;;;;;10.32;2.78;;;;;;;;;;4997393;28;20041;-30
2022/01/13 03:02:53;;;;;;;13.35;3.90;;;;;;;;;;4997017;28;20040;-30
2022/01/13 03:05:20;;;;;;;14.02;3.42;;;;;;;;;;4996859;28;20045;-32
2022/01/13 03:07:46;;;;;;;8.63;4.18;;;;;;;;;;4997342;28;20358;-31
2022/01/13 03:10:13;;;;;;;8.13;3.50;;;;;;;;;;4997220;28;20346;-34
2022/01/13 03:12:43;;;;;;;12.70;4.32;;;;;;;;;;4997143;28;20477;-33
2022/01/13 03:15:09;;;;;;;7.35;3.13;;;;;;;;;;4997974;28;20045;-31
2022/01/13 03:17:36;;;;;;;9.93;3.70;;;;;;;;;;4996875;28;20034;-31
2022/01/13 03:20:03;;;;;;;8.68;3.13;;;;;;;;;;4996900;28;20023;-33
2022/01/13 03:22:29;;;;;;;9.70;3.13;;;;;;;;;;4996713;28;20411;-32
2022/01/13 03:24:56;;;;;;;11.07;4.53;;;;;;;;;;4996802;28;20027;-33
2022/01/13 03:27:23;;;;;;;15.30;3.80;;;;;;;;;;4996980;28;20037;-31
2022/01/13 03:29:50;;;;;;;14.25;4.63;;;;;;;;;;4996125;28;20026;-32
2022/01/13 03:32:16;;;;;;;11.95;4.60;;;;;;;;;;4996545;28;20026;-30
2022/01/13 03:34:43;;;;;;;14.60;4.70;;;;;;;;;;4996856;28;20053;-31
2022/01/13 03:37:09;;;;;;;10.85;3.63;;;;;;;;;;4996831;28;20029;-31
2022/01/13 03:39:35;;;;;;;12.02;3.72;;;;;;;;;;4996524;28;20053;-31
2022/01/13 03:42:03;;;;;;;9.45;3.50;;;;;;;;;;4996397;28;20019;-32
2022/01/13 03:44:29;;;;;;;12.35;3.83;;;;;;;;;;4996122;28;20030;-32
2022/01/13 03:47:04;;;;;;;10.18;4.05;;;;;;;;;;4996361;28;20050;-30
2022/01/13 03:49:30;;;;;;;11.23;4.38;;;;;;;;;;4996284;28;20073;-32
2022/01/13 03:52:00;;;;;;;8.25;3.17;;;;;;;;;;4996246;28;20050;-31
2022/01/13 03:54:33;;;;;;;7.18;3.13;;;;;;;;;;4996573;28;20125;-31
2022/01/13 03:57:18;;;;;;;6.50;3.03;;;;;;;;;;4996160;28;20030;-31
2022/01/13 04:00:10;;;;;;;11.10;4.25;;;;;;;;;;4996311;28;20442;-31
2022/01/13 04:02:37;;;;;;;9.75;3.63;;;;;;;;;;4966736;28;20053;-30
2022/01/13 04:05:04;;;;;;;10.70;3.47;;;;;;;;;;4996147;28;20378;-31
2022/01/13 04:07:30;;;;;;;10.98;3.33;;;;;;;;;;4996138;28;20083;-31
2022/01/13 04:09:56;;;;;;;12.15;3.40;;;;;;;;;;4995882;28;20022;-32
2022/01/13 04:12:25;;;;;;;5.50;2.97;;;;;;;;;;4995994;28;20034;-33
2022/01/13 04:14:59;;;;;;;9.98;4.00;;;;;;;;;;4996545;28;20097;-32
2022/01/13 04:17:26;;;;;;;6.43;3.45;;;;;;;;;;4994797;28;20031;-32
2022/01/13 04:19:53;;;;;;;11.73;3.30;;;;;;;;;;4995714;28;20026;-32
2022/01/13 04:22:19;;;;;;;9.67;3.17;;;;;;;;;;4995521;28;20026;-32
2022/01/13 04:24:47;;;;;;;8.32;3.17;;;;;;;;;;4995831;28;20030;-31
2022/01/13 04:27:21;;;;;;;7.13;3.15;;;;;;;;;;4995554;28;20022;-31
2022/01/13 04:29:49;;;;;;;13.52;3.50;;;;;;;;;;4995837;28;20343;-31
2022/01/13 04:32:16;;;;;;;7.68;3.70;;;;;;;;;;4995337;28;20030;-32
2022/01/13 04:34:42;;;;;;;9.48;3.85;;;;;;;;;;4995736;28;20069;-31
2022/01/13 04:37:08;;;;;;;10.60;3.63;;;;;;;;;;4995424;28;20027;-31
2022/01/13 04:39:35;;;;;;;10.77;3.30;;;;;;;;;;4995588;28;20038;-31
2022/01/13 04:42:01;;;;;;;6.97;4.38;;;;;;;;;;4995442;28;20077;-33
2022/01/13 04:44:28;;;;;;;7.90;3.00;;;;;;;;;;4994973;28;20045;-32
2022/01/13 04:46:54;;;;;;;14.30;4.50;;;;;;;;;;4995076;28;20176;-32
2022/01/13 04:49:21;;;;;;;8.15;3.92;;;;;;;;;;4995397;28;20027;-34
2022/01/13 04:51:50;;;;;;;7.65;3.42;;;;;;;;;;4994058;28;20029;-30
2022/01/13 04:54:16;;;;;;;6.18;3.42;;;;;;;;;;4994932;28;20078;-31
2022/01/13 04:59:17;;;;;;;9.05;3.60;;;;;;;;;;4994973;28;20357;-32
2022/01/13 05:01:44;;;;;;;4.93;3.60;;;;;;;;;;4995293;28;20037;-30
2022/01/13 05:04:10;;;;;;;10.73;4.55;;;;;;;;;;4994865;28;20026;-32
2022/01/13 05:06:37;;;;;;;12.32;3.63;;;;;;;;;;4994573;28;20046;-32
2022/01/13 05:09:04;;;;;;;14.60;4.90;;;;;;;;;;4993737;28;20397;-32
2022/01/13 05:11:30;;;;;;;10.50;2.92;;;;;;;;;;4994779;28;20155;-30
2022/01/13 05:13:56;;;;;;;13.82;3.92;;;;;;;;;;4993569;28;20121;-31
2022/01/13 05:16:29;;;;;;;7.72;4.45;;;;;;;;;;4994298;28;20038;-31
2022/01/13 05:24:32;;;;;;;6.80;3.58;;;;;;;;;;4935356;29;20055;-31
2022/01/13 05:26:58;;;;;;;10.57;4.28;;;;;;;;;;4977832;28;20035;-32
2022/01/13 05:29:24;;;;;;;7.35;3.28;;;;;;;;;;4994745;28;20335;-31
2022/01/13 05:31:51;;;;;;;17.38;4.32;;;;;;;;;;4994830;28;20026;-32
2022/01/13 05:34:17;;;;;;;8.50;3.15;;;;;;;;;;4993700;28;20030;-32
2022/01/13 05:36:44;;;;;;;10.25;4.20;;;;;;;;;;4994608;28;20031;-32
2022/01/13 05:39:11;;;;;;;10.27;4.07;;;;;;;;;;4994521;28;20026;-30
2022/01/13 05:41:37;;;;;;;8.75;3.35;;;;;;;;;;4994567;28;20343;-31
2022/01/13 05:44:03;;;;;;;10.25;4.75;;;;;;;;;;4994375;28;20022;-30
2022/01/13 05:46:30;;;;;;;16.45;3.75;;;;;;;;;;4994375;28;20061;-31
2022/01/13 05:48:56;;;;;;;8.05;3.50;;;;;;;;;;4994586;28;20114;-33
2022/01/13 05:51:23;;;;;;;9.10;3.72;;;;;;;;;;4995171;28;20102;-32
2022/01/13 05:53:49;;;;;;;16.42;7.40;;;;;;;;;;4994642;28;20026;-32
2022/01/13 05:56:15;;;;;;;16.55;4.78;;;;;;;;;;4994479;28;20102;-33
2022/01/13 05:58:41;;;;;;;13.73;4.28;;;;;;;;;;4994964;28;20034;-37
2022/01/13 06:03:43;;;;;;;12.45;4.03;;;;;;;;;;5152969;23;20540;-24
2022/01/13 06:06:10;;;;;;;11.13;3.67;;;;;;;;;;4994322;28;20105;-24
2022/01/13 06:08:36;;;;;;;22.38;4.65;;;;;;;;;;4996622;28;20085;-24
2022/01/13 06:11:03;;;;;;;7.15;2.95;;;;;;;;;;4998299;28;20027;-24
2022/01/13 06:13:29;;;;;;;12.38;5.82;;;;;;;;;;4997768;28;20026;-24
2022/01/13 06:15:55;;;;;;;16.10;4.88;;;;;;;;;;4997598;28;20030;-24
2022/01/13 06:18:25;;;;;;;12.52;4.15;;;;;;;;;;4997769;28;20027;-24
2022/01/13 06:20:51;;;;;;;16.67;3.88;;;;;;;;;;4997797;28;20040;-24
2022/01/13 06:23:18;;;;;;;9.85;4.07;;;;;;;;;;4997253;28;20034;-23
2022/01/13 06:25:44;;;;;;;20.92;3.95;;;;;;;;;;4996426;28;20037;-27
2022/01/13 06:28:10;;;;;;;18.77;4.28;;;;;;;;;;4997594;28;20038;-26
2022/01/13 06:30:37;;;;;;;7.47;4.07;;;;;;;;;;4997539;28;20034;-23
2022/01/13 06:33:04;;;;;;;9.50;4.35;;;;;;;;;;4997145;28;20036;-24
2022/01/13 06:35:30;;;;;;;9.95;3.55;;;;;;;;;;4997201;28;20038;-27
2022/01/13 06:37:56;;;;;;;11.35;4.25;;;;;;;;;;4997321;28;20034;-26
2022/01/13 06:40:24;;;;;;;21.73;5.28;;;;;;;;;;4997277;28;20461;-26
2022/01/13 06:42:50;;;;;;;8.98;3.42;;;;;;;;;;4997435;28;20504;-26
2022/01/13 06:45:16;;;;;;;17.38;3.85;;;;;;;;;;4997129;28;20334;-26
2022/01/13 06:47:42;;;;;;;11.15;3.67;;;;;;;;;;4996067;28;20052;-26
2022/01/13 06:50:09;;;;;;;10.75;3.10;;;;;;;;;;4996973;28;20034;-27
2022/01/13 06:52:36;;;;;;;12.32;4.38;;;;;;;;;;4997208;28;20054;-26
2022/01/13 06:55:02;;;;;;;11.20;3.75;;;;;;;;;;4997016;28;20038;-26
2022/01/13 06:57:30;;;;;;;9.50;4.32;;;;;;;;;;4996744;28;20358;-26
2022/01/13 06:59:56;;;;;;;14.75;4.45;;;;;;;;;;4996936;28;20035;-24
2022/01/13 07:02:24;;;;;;;10.88;3.80;;;;;;;;;;4996557;28;20038;-24
2022/01/13 07:04:50;;;;;;;19.17;3.90;;;;;;;;;;4996959;28;20054;-24
2022/01/13 07:07:17;;;;;;;10.07;3.67;;;;;;;;;;4996851;28;20050;-24
2022/01/13 07:09:43;;;;;;;13.35;3.72;;;;;;;;;;4996987;28;20326;-24
2022/01/13 07:12:10;;;;;;;13.15;3.95;;;;;;;;;;4996796;28;20343;-24
2022/01/13 07:20:56;;;;;;;17.05;4.68;;;;;;;;;;4996485;28;20044;-24
2022/01/13 07:23:26;;;;;;;13.85;4.45;;;;;;;;;;4996640;28;20038;-24
2022/01/13 07:25:52;;;;;;;19.00;4.75;;;;;;;;;;4996407;28;20073;-24
2022/01/13 07:28:18;;;;;;;20.63;4.78;;;;;;;;;;4996710;28;20026;-24
2022/01/13 07:30:44;;;;;;;14.18;4.82;;;;;;;;;;4996360;28;20023;-24
2022/01/13 07:33:10;;;;;;;11.20;4.38;;;;;;;;;;4996203;28;20105;-24
2022/01/13 07:35:37;;;;;;;10.25;3.75;;;;;;;;;;4996244;28;20032;-24
2022/01/13 07:38:03;;;;;;;10.73;4.75;;;;;;;;;;4996098;28;20081;-24
2022/01/13 07:40:31;;;;;;;17.88;4.10;;;;;;;;;;4996369;28;20030;-24
2022/01/13 07:42:57;;;;;;;15.43;4.65;;;;;;;;;;4995662;28;20026;-24
2022/01/13 07:45:24;;;;;;;10.80;4.88;;;;;;;;;;4996491;28;20022;-26
2022/01/13 07:47:50;;;;;;;12.32;3.28;;;;;;;;;;4996009;28;20022;-26
2022/01/13 07:50:19;;;;;;;11.07;4.18;;;;;;;;;;4995096;28;20053;-26
2022/01/13 07:52:45;;;;;;;14.43;3.85;;;;;;;;;;4994965;28;20038;-26
2022/01/13 07:55:12;;;;;;;8.85;4.03;;;;;;;;;;4995995;28;20022;-24
2022/01/13 07:57:38;;;;;;;13.73;3.90;;;;;;;;;;4995992;28;20030;-24
2022/01/13 08:00:06;;;;;;;17.67;4.82;;;;;;;;;;4995767;28;20465;-24
2022/01/13 08:02:32;;;;;;;9.75;3.45;;;;;;;;;;4995576;28;20729;-24
2022/01/13 08:04:59;;;;;;;14.70;5.30;;;;;;;;;;4994702;28;20088;-24
2022/01/13 08:07:25;;;;;;;9.43;3.53;;;;;;;;;;4995890;28;20105;-29
2022/01/13 08:09:51;;;;;;;6.90;3.75;;;;;;;;;;4996004;28;20354;-24
2022/01/13 08:12:17;;;;;;;12.65;4.18;;;;;;;;;;4995566;28;20033;-24
2022/01/13 08:14:44;;;;;;;11.00;3.90;;;;;;;;;;4995597;28;20026;-25
2022/01/13 08:19:45;;;;;;;15.45;4.15;;;;;;;;;;4995501;28;20034;-24
2022/01/13 08:19:56;;;;;;;10.43;3.53;;;;;;;;;;4995520;28;20129;-25
2022/01/13 08:22:22;;;;;;;10.77;4.47;;;;;;;;;;4995777;28;20033;-25
2022/01/13 08:24:48;;;;;;;8.80;3.28;;;;;;;;;;4995336;28;20054;-24
2022/01/13 08:27:15;;;;;;;15.45;4.10;;;;;;;;;;4995390;28;20089;-25
2022/01/13 08:29:41;;;;;;;34.08;5.47;;;;;;;;;;4995550;28;20030;-25
2022/01/13 08:32:07;;;;;;;12.60;3.13;;;;;;;;;;4995105;28;20061;-25
2022/01/13 08:34:34;;;;;;;12.57;3.67;;;;;;;;;;4995626;28;20409;-25
2022/01/13 08:37:00;;;;;;;12.32;3.88;;;;;;;;;;4994232;28;20026;-25
2022/01/13 08:39:26;;;;;;;9.85;4.47;;;;;;;;;;4995170;28;20034;-25
2022/01/13 08:41:53;;;;;;;12.85;4.80;;;;;;;;;;4994100;28;20030;-25
2022/01/13 08:44:19;;;;;;;14.38;4.43;;;;;;;;;;4995030;28;20034;-25
2022/01/13 08:46:45;;;;;;;17.35;4.28;;;;;;;;;;4995318;28;20032;-25
2022/01/13 08:49:12;;;;;;;13.30;3.97;;;;;;;;;;4995467;28;20026;-25
2022/01/13 08:51:38;;;;;;;15.43;4.00;;;;;;;;;;4995054;28;20473;-25
2022/01/13 08:54:05;;;;;;;11.60;3.58;;;;;;;;;;4994944;28;20045;-25
2022/01/13 08:56:31;;;;;;;11.48;4.30;;;;;;;;;;4995216;28;20377;-25
2022/01/13 08:58:57;;;;;;;13.43;3.97;;;;;;;;;;4993810;28;20029;-25
2022/01/13 09:01:24;;;;;;;25.00;5.10;;;;;;;;;;4994762;28;20058;-25
2022/01/13 09:03:51;;;;;;;15.75;5.18;;;;;;;;;;4994462;28;20358;-25
2022/01/13 09:06:17;;;;;;;15.35;3.92;;;;;;;;;;4993808;28;20445;-25
2022/01/13 09:08:43;;;;;;;8.55;3.83;;;;;;;;;;4994758;28;20023;-25
2022/01/13 09:11:09;;;;;;;19.67;4.55;;;;;;;;;;4993742;28;20453;-25
2022/01/13 09:13:37;;;;;;;14.50;3.67;;;;;;;;;;4994690;28;20030;-25
2022/01/13 09:16:13;;;;;;;16.88;5.25;;;;;;;;;;4994011;28;20034;-26
2022/01/13 09:21:24;;;;;;;15.98;3.92;;;;;;;;;;4994883;28;20054;-26
2022/01/13 09:23:50;;;;;;;23.38;4.57;;;;;;;;;;4994541;28;20030;-30
2022/01/13 09:26:17;;;;;;;16.13;4.57;;;;;;;;;;4995014;28;20036;-25
2022/01/13 09:28:43;;;;;;;22.20;5.53;;;;;;;;;;4994610;28;20038;-25
2022/01/13 09:31:10;;;;;;;22.10;4.00;;;;;;;;;;4995283;28;20031;-26
2022/01/13 09:33:36;;;;;;;16.40;4.85;;;;;;;;;;4994652;28;20092;-26
2022/01/13 09:36:04;;;;;;;11.70;4.10;;;;;;;;;;4995286;28;20038;-25
2022/01/13 09:38:30;;;;;;;15.15;4.68;;;;;;;;;;4994759;28;20069;-25
2022/01/13 09:40:56;;;;;;;15.60;4.22;;;;;;;;;;4994816;28;20030;-25
2022/01/13 09:43:25;;;;;;;19.52;5.68;;;;;;;;;;4996318;28;20030;-26
2022/01/13 09:45:52;;;;;;;16.23;3.53;;;;;;;;;;4998274;28;20037;-26
2022/01/13 09:48:18;;;;;;;14.70;4.00;;;;;;;;;;4998368;28;20018;-25
2022/01/13 09:50:48;;;;;;;17.17;4.50;;;;;;;;;;4997410;28;20023;-26
2022/01/13 09:53:15;;;;;;;13.18;3.70;;;;;;;;;;4998418;28;20049;-26
2022/01/13 09:55:42;;;;;;;7.97;3.92;;;;;;;;;;4998554;28;20057;-26
2022/01/13 09:58:12;;;;;;;10.60;3.75;;;;;;;;;;4998629;28;20178;-25
2022/01/13 10:00:39;;;;;;;21.13;4.22;;;;;;;;;;4998634;28;20037;-26
2022/01/13 10:03:12;;;;;;;15.95;3.63;;;;;;;;;;4998180;28;20039;-26
2022/01/13 10:05:47;;;;;;;14.60;4.18;;;;;;;;;;4998704;28;20030;-26
2022/01/13 10:08:13;;;;;;;20.13;5.10;;;;;;;;;;4998377;28;20481;-26
2022/01/13 10:10:39;;;;;;;13.93;4.20;;;;;;;;;;4997021;28;20034;-26
2022/01/13 10:13:10;;;;;;;15.23;4.85;;;;;;;;;;4997938;28;20057;-26
2022/01/13 10:18:48;;;;;;;11.85;3.92;;;;;;;;;;4997775;28;20049;-26
2022/01/13 10:21:19;;;;;;;13.18;3.97;;;;;;;;;;4997940;28;20465;-26
2022/01/13 10:24:02;;;;;;;20.63;5.55;;;;;;;;;;4997516;28;20105;-26
2022/01/13 10:26:29;;;;;;;19.70;5.20;;;;;;;;;;4997579;28;20018;-26
2022/01/13 10:28:56;;;;;;;12.90;4.57;;;;;;;;;;4997368;28;20111;-26
2022/01/13 10:31:22;;;;;;;18.05;5.65;;;;;;;;;;4997533;28;20038;-26
2022/01/13 10:33:48;;;;;;;15.98;4.45;;;;;;;;;;4997676;28;20097;-26
2022/01/13 10:36:16;;;;;;;12.45;4.03;;;;;;;;;;4997407;28;20529;-26
2022/01/13 10:38:53;;;;;;;13.55;3.63;;;;;;;;;;4997665;28;20033;-26
2022/01/13 10:41:48;;;;;;;20.77;3.67;;;;;;;;;;4997255;28;20040;-26
2022/01/13 10:44:19;;;;;;;11.45;3.83;;;;;;;;;;4997073;28;20057;-26
2022/01/13 10:46:56;;;;;;;19.40;4.50;;;;;;;;;;4996271;28;20026;-26
2022/01/13 10:49:31;;;;;;;18.77;4.10;;;;;;;;;;4997408;28;20077;-26
2022/01/13 10:52:21;;;;;;;17.77;5.55;;;;;;;;;;4996897;28;20379;-26
2022/01/13 10:54:47;;;;;;;11.77;3.97;;;;;;;;;;4996029;28;20335;-26
2022/01/13 10:57:17;;;;;;;8.55;4.07;;;;;;;;;;4996960;28;20054;-26
2022/01/13 10:59:44;;;;;;;18.17;4.85;;;;;;;;;;4997145;28;20361;-26
2022/01/13 11:02:10;;;;;;;13.43;4.43;;;;;;;;;;4996744;28;20041;-25
2022/01/13 11:04:37;;;;;;;12.02;4.43;;;;;;;;;;4996580;28;20477;-26
2022/01/13 11:07:17;;;;;;;15.40;5.22;;;;;;;;;;4997165;28;20018;-26
2022/01/13 11:09:52;;;;;;;8.87;5.10;;;;;;;;;;4996905;28;20026;-26
2022/01/13 11:12:27;;;;;;;18.20;4.25;;;;;;;;;;4995482;28;20476;-25
2022/01/13 11:14:59;;;;;;;14.77;5.43;;;;;;;;;;4995618;28;20458;-26
2022/01/13 11:17:26;;;;;;;15.43;4.63;;;;;;;;;;4996748;28;20129;-26
2022/01/13 11:19:53;;;;;;;17.45;5.32;;;;;;;;;;4996727;28;20049;-26
2022/01/13 11:22:19;;;;;;;17.38;3.88;;;;;;;;;;4996300;28;20026;-25
2022/01/13 11:24:46;;;;;;;28.02;4.85;;;;;;;;;;4996367;28;20026;-26
2022/01/13 11:27:14;;;;;;;18.95;6.35;;;;;;;;;;4995215;28;20454;-26
2022/01/13 11:29:40;;;;;;;27.42;6.60;;;;;;;;;;4996143;28;20042;-26
2022/01/13 11:32:07;;;;;;;10.98;4.45;;;;;;;;;;4996572;28;20071;-26
2022/01/13 11:34:34;;;;;;;15.70;4.47;;;;;;;;;;4996182;28;20023;-26
2022/01/13 11:37:00;;;;;;;18.77;4.47;;;;;;;;;;4996013;28;20085;-26
2022/01/13 11:39:41;;;;;;;15.95;5.35;;;;;;;;;;4996680;28;20035;-26
2022/01/13 11:42:08;;;;;;;15.50;3.80;;;;;;;;;;4996263;28;20097;-26
2022/01/13 11:44:35;;;;;;;12.90;4.10;;;;;;;;;;4995067;28;20321;-26
2022/01/13 11:47:08;;;;;;;18.02;5.15;;;;;;;;;;4996682;28;20389;-24
2022/01/13 11:49:53;;;;;;;14.63;3.95;;;;;;;;;;4996033;28;20026;-25
2022/01/13 11:52:32;;;;;;;23.90;5.68;;;;;;;;;;4995216;28;20034;-25
2022/01/13 11:54:58;;;;;;;13.65;4.28;;;;;;;;;;4995920;28;20054;-25
2022/01/13 11:57:25;;;;;;;14.07;4.45;;;;;;;;;;4995751;28;20054;-25
2022/01/13 11:59:58;;;;;;;9.75;4.38;;;;;;;;;;4995376;28;20043;-25
2022/01/13 12:02:28;;;;;;;14.60;4.38;;;;;;;;;;4995941;28;20034;-26
2022/01/13 12:05:05;;;;;;;16.00;5.07;;;;;;;;;;4995936;28;20041;-26
2022/01/13 12:07:35;;;;;;;22.75;5.68;;;;;;;;;;4995658;28;20445;-26
2022/01/13 12:10:02;;;;;;;14.77;4.60;;;;;;;;;;4996133;28;20445;-26
2022/01/13 12:12:30;;;;;;;12.55;4.40;;;;;;;;;;4995733;28;20026;-26
2022/01/13 12:15:14;;;;;;;11.20;4.28;;;;;;;;;;4995831;28;20053;-26
2022/01/13 12:17:48;;;;;;;15.88;4.50;;;;;;;;;;4995524;28;20046;-26
2022/01/13 12:20:21;;;;;;;12.70;4.47;;;;;;;;;;4995560;28;20045;-26
2022/01/13 12:23:14;;;;;;;21.10;4.63;;;;;;;;;;4995325;28;20067;-26
2022/01/13 12:25:41;;;;;;;18.05;4.85;;;;;;;;;;4995290;28;20061;-25
2022/01/13 12:28:13;;;;;;;15.20;4.63;;;;;;;;;;4995428;28;20030;-26
2022/01/13 12:30:40;;;;;;;14.80;4.00;;;;;;;;;;4995269;28;20022;-26
2022/01/13 12:33:07;;;;;;;10.77;4.07;;;;;;;;;;4995312;28;20030;-26
2022/01/13 12:35:47;;;;;;;17.95;4.45;;;;;;;;;;4994976;28;20041;-26
2022/01/13 12:38:18;;;;;;;10.52;3.83;;;;;;;;;;4995365;28;20306;-26
2022/01/13 12:41:01;;;;;;;12.23;3.95;;;;;;;;;;4993880;28;20038;-26
2022/01/13 12:46:00;;;;;;;13.63;4.00;;;;;;;;;;4994810;28;20034;-26
2022/01/13 12:48:29;;;;;;;10.38;3.60;;;;;;;;;;4994752;28;20034;-26
2022/01/13 12:50:57;;;;;;;21.23;3.65;;;;;;;;;;4994871;28;20019;-26
2022/01/13 12:53:28;;;;;;;23.40;5.22;;;;;;;;;;4994608;28;20030;-26
2022/01/13 12:55:59;;;;;;;20.05;5.57;;;;;;;;;;4995744;28;20113;-26
2022/01/13 12:58:26;;;;;;;13.90;4.07;;;;;;;;;;4994954;28;20026;-26
2022/01/13 13:00:56;;;;;;;17.13;3.67;;;;;;;;;;4993630;28;20368;-25
2022/01/13 13:03:22;;;;;;;28.70;4.78;;;;;;;;;;4994347;28;20038;-26
2022/01/13 13:05:51;;;;;;;12.45;4.00;;;;;;;;;;4994499;28;20031;-26
2022/01/13 13:08:19;;;;;;;13.32;3.85;;;;;;;;;;4994585;28;20038;-26
2022/01/13 13:10:47;;;;;;;19.85;4.55;;;;;;;;;;4994547;28;20022;-26
2022/01/13 13:13:14;;;;;;;15.57;4.85;;;;;;;;;;4995019;28;20022;-26
2022/01/13 13:15:41;;;;;;;17.52;5.38;;;;;;;;;;4993737;28;20400;-26
2022/01/13 13:18:07;;;;;;;11.40;3.33;;;;;;;;;;4996546;28;20034;-26
2022/01/13 13:20:35;;;;;;;14.70;4.97;;;;;;;;;;4998429;28;20026;-26
2022/01/13 13:23:03;;;;;;;12.23;4.63;;;;;;;;;;4998474;28;20484;-26
2022/01/13 13:25:36;;;;;;;17.83;4.38;;;;;;;;;;4997685;28;20055;-26
2022/01/13 13:28:22;;;;;;;16.42;4.03;;;;;;;;;;4998730;28;20018;-26
2022/01/13 13:30:56;;;;;;;18.15;6.43;;;;;;;;;;4998708;28;20058;-26
2022/01/13 13:33:33;;;;;;;13.70;4.03;;;;;;;;;;4998874;28;20357;-26
2022/01/13 13:36:00;;;;;;;25.35;5.00;;;;;;;;;;4999173;28;20031;-26
2022/01/13 13:38:26;;;;;;;12.38;5.45;;;;;;;;;;4998360;28;20470;-26
2022/01/13 13:40:52;;;;;;;26.30;4.95;;;;;;;;;;4998493;28;20053;-26
2022/01/13 13:43:19;;;;;;;20.95;3.92;;;;;;;;;;4998137;28;20030;-26
2022/01/13 13:45:45;;;;;;;26.67;4.80;;;;;;;;;;4998514;28;20023;-26
2022/01/13 13:48:14;;;;;;;16.45;3.75;;;;;;;;;;4998417;28;20033;-26
2022/01/13 13:50:40;;;;;;;27.52;4.65;;;;;;;;;;4998146;28;20038;-26
2022/01/13 13:53:12;;;;;;;19.38;5.22;;;;;;;;;;4998111;28;20027;-26
2022/01/13 13:55:39;;;;;;;22.58;5.25;;;;;;;;;;4998098;28;20361;-26
2022/01/13 13:58:07;;;;;;;10.98;5.20;;;;;;;;;;4998426;28;20030;-26
2022/01/13 14:00:33;;;;;;;21.77;4.72;;;;;;;;;;4998429;28;20105;-26
2022/01/13 14:03:01;;;;;;;12.43;3.30;;;;;;;;;;4997866;28;20058;-26
2022/01/13 14:05:40;;;;;;;13.40;4.63;;;;;;;;;;4998396;28;20030;-26
2022/01/13 14:08:10;;;;;;;25.02;5.20;;;;;;;;;;4998190;28;20026;-26
2022/01/13 14:10:36;;;;;;;21.17;6.80;;;;;;;;;;4998221;28;20034;-26
2022/01/13 14:13:04;;;;;;;10.25;3.90;;;;;;;;;;4997759;28;20057;-26
2022/01/13 14:15:32;;;;;;;17.20;3.97;;;;;;;;;;4997823;28;20177;-27
2022/01/13 14:18:08;;;;;;;16.85;4.88;;;;;;;;;;4998145;28;20034;-26
2022/01/13 14:20:39;;;;;;;24.80;4.50;;;;;;;;;;4997829;28;20026;-27
2022/01/13 14:23:09;;;;;;;18.27;4.20;;;;;;;;;;4997700;28;20022;-26
2022/01/13 14:25:37;;;;;;;14.95;4.68;;;;;;;;;;4997646;28;20092;-26
2022/01/13 14:28:05;;;;;;;25.00;5.47;;;;;;;;;;4997701;28;20022;-26
2022/01/13 14:30:33;;;;;;;13.75;4.75;;;;;;;;;;4997639;28;20045;-27
2022/01/13 14:33:32;;;;;;;14.02;4.30;;;;;;;;;;4997389;28;20080;-26
2022/01/13 14:36:19;;;;;;;17.52;4.20;;;;;;;;;;4955494;28;20062;-26
2022/01/13 14:38:52;;;;;;;20.52;4.32;;;;;;;;;;4998289;28;20091;-27
2022/01/13 14:41:18;;;;;;;23.77;4.65;;;;;;;;;;4997387;28;20023;-24
2022/01/13 14:43:58;;;;;;;25.00;4.68;;;;;;;;;;4997496;28;20041;-24
2022/01/13 14:46:26;;;;;;;29.63;4.72;;;;;;;;;;4996590;28;20022;-24
2022/01/13 14:48:52;;;;;;;15.77;5.07;;;;;;;;;;4997148;28;20019;-25
2022/01/13 14:51:20;;;;;;;19.90;4.07;;;;;;;;;;4996898;28;20468;-25
2022/01/13 14:53:47;;;;;;;19.00;4.82;;;;;;;;;;4997292;28;20414;-25
2022/01/13 14:56:14;;;;;;;17.58;4.45;;;;;;;;;;4997032;28;20046;-25
2022/01/13 14:58:41;;;;;;;16.20;3.80;;;;;;;;;;4995971;28;20034;-24
2022/01/13 15:01:08;;;;;;;25.80;5.43;;;;;;;;;;4997175;28;20454;-24
2022/01/13 15:03:35;;;;;;;16.48;4.60;;;;;;;;;;4996387;28;20042;-25
2022/01/13 15:06:02;;;;;;;18.42;4.28;;;;;;;;;;4997028;28;20030;-25
2022/01/13 15:08:29;;;;;;;16.73;3.85;;;;;;;;;;4997082;28;20449;-25
2022/01/13 15:10:56;;;;;;;23.40;3.80;;;;;;;;;;4996715;28;20035;-25
2022/01/13 15:13:22;;;;;;;16.17;5.32;;;;;;;;;;4996704;28;20034;-25
2022/01/13 15:15:49;;;;;;;17.77;3.60;;;;;;;;;;4995586;28;20034;-24
2022/01/13 15:18:17;;;;;;;15.75;4.43;;;;;;;;;;4996975;28;20117;-25